createdAt,value
2022-12-04T10:49:21.797Z,1012.93
2022-12-04T10:50:46.825Z,1012.90
2022-12-04T10:51:50.031Z,1012.79
2022-12-04T10:52:23.184Z,1012.85
2022-12-04T10:53:20.436Z,1012.83
2022-12-04T10:54:24.440Z,1012.91
2022-12-04T10:55:29.967Z,1012.88
2022-12-04T10:56:24.363Z,1012.90
2022-12-04T10:59:06.468Z,1012.85
2022-12-04T11:00:06.237Z,1012.84
2022-12-04T11:03:56.967Z,1012.89
2022-12-04T11:04:53.258Z,1012.85
2022-12-04T11:12:04.347Z,1012.84
2022-12-04T11:13:01.206Z,1012.78
2022-12-04T11:14:00.751Z,1012.74
2022-12-04T11:15:06.797Z,1012.73
2022-12-04T11:19:24.837Z,1012.75
2022-12-04T11:29:35.905Z,1012.55
2022-12-04T11:35:08.862Z,1012.42
2022-12-04T11:36:09.317Z,1012.40
2022-12-04T11:37:08.309Z,1012.40
2022-12-04T11:38:08.908Z,1012.37
2022-12-04T11:39:11.336Z,1012.41
2022-12-04T11:40:12.836Z,1012.37
2022-12-04T11:41:07.877Z,1012.30
2022-12-04T11:42:07.938Z,1012.30
2022-12-04T11:43:08.197Z,1012.28
2022-12-04T11:44:08.856Z,1012.33
2022-12-04T11:45:08.664Z,1012.30
2022-12-04T11:46:07.889Z,1012.28
2022-12-04T11:47:11.852Z,1012.36
2022-12-04T11:48:14.477Z,1012.32
2022-12-04T11:49:08.018Z,1012.34
2022-12-04T11:50:08.040Z,1012.33
2022-12-04T11:51:10.374Z,1012.30
2022-12-04T11:55:02.326Z,1012.21
2022-12-04T11:56:00.988Z,1012.14
2022-12-04T11:56:59.512Z,1012.15
2022-12-04T12:02:44.691Z,1012.17
2022-12-04T12:03:47.639Z,1012.15
2022-12-04T12:06:50.596Z,1012.16
2022-12-04T12:07:50.713Z,1012.11
2022-12-04T12:08:49.155Z,1012.17
2022-12-04T12:11:22.904Z,1012.18
2022-12-04T12:14:03.905Z,1012.24
2022-12-04T12:15:13.970Z,1012.22
2022-12-04T12:15:55.769Z,1012.24
2022-12-04T12:16:55.366Z,1012.23
2022-12-04T12:17:52.419Z,1012.21
2022-12-04T12:18:52.191Z,1012.25
2022-12-04T12:19:52.640Z,1012.24
2022-12-04T12:20:52.767Z,1012.28
2022-12-04T12:21:52.905Z,1012.26
2022-12-04T12:22:52.113Z,1012.22
2022-12-04T12:23:52.465Z,1012.18
2022-12-04T12:24:52.142Z,1012.12
2022-12-04T12:25:52.794Z,1012.18
2022-12-04T12:26:52.282Z,1012.13
2022-12-04T12:27:52.282Z,1012.11
2022-12-04T12:28:52.610Z,1012.12
2022-12-04T12:29:52.366Z,1012.13
2022-12-04T12:30:51.934Z,1012.10
2022-12-04T12:33:52.952Z,1012.08
2022-12-04T12:34:59.701Z,1012.10
2022-12-04T12:38:47.538Z,1012.15
2022-12-04T12:50:26.731Z,1011.97
2022-12-04T12:51:35.466Z,1012.00
2022-12-04T12:52:23.913Z,1012.00
2022-12-04T13:00:41.538Z,1011.93
2022-12-04T13:03:32.775Z,1011.95
2022-12-04T13:04:27.078Z,1011.97
2022-12-04T13:05:38.383Z,1011.92
2022-12-04T13:06:26.745Z,1011.97
2022-12-04T13:07:31.427Z,1011.85
2022-12-04T13:08:32.793Z,1011.87
2022-12-04T13:09:45.579Z,1011.85
2022-12-04T13:10:26.857Z,1011.82
2022-12-04T13:11:26.702Z,1011.88
2022-12-04T13:12:42.448Z,1011.79
2022-12-04T13:13:29.411Z,1011.78
2022-12-04T13:16:39.449Z,1011.77
2022-12-04T13:17:14.149Z,1011.71
2022-12-04T13:23:34.959Z,1011.65
2022-12-04T13:25:47.807Z,1011.67
2022-12-04T13:26:49.657Z,1011.66
2022-12-04T13:27:46.919Z,1011.64
2022-12-04T13:28:45.929Z,1011.71
2022-12-04T13:29:54.471Z,1011.66
2022-12-04T13:30:47.517Z,1011.65
2022-12-04T13:32:27.498Z,1011.60
2022-12-04T13:32:49.422Z,1011.58
2022-12-04T13:33:47.943Z,1011.60
2022-12-04T13:34:46.106Z,1011.61
2022-12-04T13:35:48.740Z,1011.57
2022-12-04T13:40:53.809Z,1011.62
2022-12-04T13:41:50.833Z,1011.55
2022-12-04T14:08:11.900Z,1011.61
2022-12-04T14:09:26.525Z,1011.61
2022-12-04T14:10:10.711Z,1011.60
2022-12-04T14:11:07.694Z,1011.65
2022-12-04T14:15:12.883Z,1011.72
2022-12-04T14:17:47.799Z,1011.72
2022-12-04T14:18:47.043Z,1011.68
2022-12-04T14:20:05.811Z,1011.74
2022-12-04T14:20:47.665Z,1011.79
2022-12-04T14:24:51.307Z,1011.90
2022-12-04T14:25:45.412Z,1011.84
2022-12-04T14:27:12.359Z,1011.85
2022-12-04T14:29:06.369Z,1011.86
2022-12-04T14:29:58.116Z,1011.95
2022-12-04T14:34:24.458Z,1011.94
2022-12-04T14:35:27.721Z,1011.95
2022-12-04T14:36:28.554Z,1011.94
2022-12-04T14:37:40.133Z,1011.96
2022-12-04T14:38:24.799Z,1012.01
2022-12-04T14:39:25.090Z,1011.95
2022-12-04T14:40:26.550Z,1011.98
2022-12-04T14:41:24.811Z,1012.03
2022-12-04T14:42:24.591Z,1012.02
2022-12-04T14:43:25.484Z,1011.99
2022-12-04T14:55:01.929Z,1012.18
2022-12-04T14:55:41.120Z,1012.16
2022-12-04T14:58:14.639Z,1012.14
2022-12-04T14:59:20.161Z,1012.10
2022-12-04T15:00:24.398Z,1012.04
2022-12-04T15:16:37.938Z,1012.06
2022-12-04T15:17:39.647Z,1012.07
2022-12-04T15:18:50.196Z,1012.02
2022-12-04T15:28:21.117Z,1012.01
2022-12-04T15:28:53.445Z,1011.97
2022-12-04T15:29:48.605Z,1011.92
2022-12-04T15:33:48.541Z,1012.04
2022-12-04T15:34:48.074Z,1011.99
2022-12-04T15:35:50.691Z,1011.97
2022-12-04T15:42:50.836Z,1012.01
2022-12-04T15:52:44.636Z,1011.93
2022-12-04T15:55:08.613Z,1011.90
2022-12-04T16:17:30.748Z,1012.02
2022-12-04T16:18:27.202Z,1011.98
2022-12-04T16:19:28.404Z,1011.95
2022-12-04T16:20:38.146Z,1012.01
2022-12-04T16:21:28.102Z,1011.99
2022-12-04T16:22:27.674Z,1012.03
2022-12-04T16:23:24.287Z,1012.04
2022-12-04T16:24:32.521Z,1011.97
2022-12-04T16:25:26.133Z,1012.01
2022-12-04T16:26:23.780Z,1011.98
2022-12-04T16:27:24.953Z,1012.06
2022-12-04T16:28:28.449Z,1012.00
2022-12-04T16:29:25.199Z,1011.99
2022-12-04T16:30:23.521Z,1011.97
2022-12-04T16:31:26.378Z,1012.04
2022-12-04T16:32:23.264Z,1012.01
2022-12-04T16:33:33.665Z,1012.04
2022-12-04T16:34:25.203Z,1012.00
2022-12-04T16:35:29.375Z,1012.01
2022-12-04T16:36:30.394Z,1012.00
2022-12-04T16:37:30.038Z,1011.94
2022-12-04T16:45:08.418Z,1012.00
2022-12-04T16:47:24.826Z,1012.02
2022-12-04T16:51:06.934Z,1012.09
2022-12-04T16:53:00.482Z,1012.02
2022-12-04T16:53:08.748Z,1012.06
2022-12-04T16:54:05.744Z,1012.05
2022-12-04T16:55:19.478Z,1012.04
2022-12-04T16:56:08.196Z,1012.08
2022-12-04T16:57:07.917Z,1012.09
2022-12-04T16:58:21.927Z,1012.11
2022-12-04T16:59:11.880Z,1012.13
2022-12-04T17:00:05.799Z,1012.14
2022-12-04T17:01:08.451Z,1012.16
2022-12-04T17:02:07.515Z,1012.06
2022-12-04T17:05:56.138Z,1012.13
2022-12-04T17:06:42.185Z,1012.09
2022-12-04T17:10:58.584Z,1012.18
2022-12-04T17:11:55.350Z,1012.20
2022-12-04T17:14:17.238Z,1012.24
2022-12-04T17:21:04.069Z,1012.34
2022-12-04T17:28:03.305Z,1012.34
2022-12-04T18:14:24.831Z,1012.48
2022-12-04T18:15:23.726Z,1012.46
2022-12-04T18:16:26.180Z,1012.37
2022-12-04T18:17:25.263Z,1012.35
2022-12-04T18:36:35.991Z,1012.23
2022-12-04T18:41:35.359Z,1012.24
2022-12-04T18:42:25.794Z,1012.20
2022-12-04T18:43:14.258Z,1012.23
2022-12-04T18:59:59.240Z,1012.26
2022-12-04T19:00:59.725Z,1012.27
2022-12-04T19:02:22.772Z,1012.24
2022-12-04T19:03:00.906Z,1012.20
2022-12-04T19:07:06.382Z,1012.33
2022-12-04T19:14:23.706Z,1012.30
2022-12-04T19:14:48.751Z,1012.31
2022-12-04T19:42:09.096Z,1012.20
2022-12-04T21:12:46.904Z,1012.14
2022-12-04T21:13:29.439Z,1012.09
2022-12-04T21:14:25.882Z,1012.10
2022-12-04T21:15:32.724Z,1012.11
2022-12-04T21:19:31.294Z,1012.10
2022-12-04T21:21:00.533Z,1012.04
2022-12-04T21:21:57.877Z,1012.02
2022-12-04T21:22:30.712Z,1012.08
2022-12-04T21:23:29.864Z,1012.10
2022-12-04T21:24:29.286Z,1011.97
2022-12-04T21:26:32.696Z,1011.97
2022-12-04T21:26:48.131Z,1011.95
2022-12-04T21:27:40.569Z,1011.98
2022-12-04T21:32:01.119Z,1011.99
2022-12-04T21:32:54.453Z,1011.97
2022-12-04T21:33:50.817Z,1012.03
2022-12-04T21:34:50.094Z,1011.99
2022-12-04T21:40:22.250Z,1011.97
2022-12-04T21:49:25.619Z,1011.91
2022-12-04T21:55:25.307Z,1011.85
2022-12-04T21:56:18.457Z,1011.86
2022-12-04T21:57:31.548Z,1011.85
2022-12-04T21:58:16.125Z,1011.87
2022-12-04T21:59:14.740Z,1011.89
2022-12-04T22:00:15.863Z,1011.85
2022-12-04T22:01:26.639Z,1011.80
2022-12-04T22:04:23.977Z,1011.81
2022-12-04T22:05:10.497Z,1011.86
2022-12-04T22:06:25.832Z,1011.88
2022-12-04T22:16:30.342Z,1011.88
2022-12-04T22:38:29.238Z,1012.01
2022-12-04T22:42:26.684Z,1011.99
2022-12-04T22:51:11.045Z,1012.03
2022-12-04T22:52:14.513Z,1012.08
2022-12-04T22:53:11.928Z,1012.06
2022-12-04T22:54:09.778Z,1011.98
2022-12-04T22:55:10.127Z,1012.02
2022-12-04T22:56:10.688Z,1012.02
2022-12-04T22:57:10.608Z,1011.99
2022-12-04T22:58:16.805Z,1011.97
2022-12-04T22:59:10.817Z,1012.01
2022-12-04T23:00:09.651Z,1012.04
2022-12-04T23:01:10.616Z,1011.99
2022-12-04T23:02:10.097Z,1012.03
2022-12-04T23:04:41.612Z,1012.13
2022-12-04T23:05:41.327Z,1012.09
2022-12-04T23:06:40.830Z,1012.08
2022-12-04T23:07:41.169Z,1012.09
2022-12-04T23:08:40.442Z,1012.11
2022-12-04T23:09:40.475Z,1012.06
2022-12-04T23:10:40.819Z,1012.07
2022-12-04T23:11:40.968Z,1012.08
2022-12-04T23:12:40.431Z,1012.10
2022-12-04T23:13:41.680Z,1012.08
2022-12-04T23:14:40.923Z,1012.08
2022-12-04T23:15:41.583Z,1012.06
2022-12-04T23:16:40.790Z,1012.06
2022-12-04T23:17:40.319Z,1012.07
2022-12-04T23:18:40.490Z,1012.02
2022-12-04T23:19:40.827Z,1012.06
2022-12-04T23:20:40.642Z,1012.13
2022-12-04T23:21:40.421Z,1012.08
2022-12-04T23:22:41.269Z,1012.13
2022-12-04T23:23:41.576Z,1012.11
2022-12-04T23:24:40.727Z,1012.13
2022-12-04T23:25:40.210Z,1012.10
2022-12-04T23:26:40.564Z,1012.12
2022-12-04T23:27:40.248Z,1012.06
2022-12-04T23:28:40.460Z,1012.04
2022-12-04T23:29:55.724Z,1012.04
2022-12-04T23:30:41.690Z,1012.08
2022-12-04T23:31:40.519Z,1012.05
2022-12-04T23:32:40.598Z,1012.10
2022-12-04T23:33:40.505Z,1012.06
2022-12-04T23:34:40.983Z,1012.07
2022-12-04T23:35:40.849Z,1012.04
2022-12-04T23:36:41.039Z,1011.97
2022-12-04T23:37:41.112Z,1011.94
2022-12-04T23:38:43.414Z,1011.93
2022-12-04T23:39:40.045Z,1011.95
2022-12-04T23:40:40.349Z,1012.05
2022-12-04T23:41:40.015Z,1012.09
2022-12-04T23:42:40.026Z,1012.05
2022-12-04T23:43:40.390Z,1012.04
2022-12-04T23:44:40.211Z,1012.07
2022-12-04T23:45:53.712Z,1012.03
2022-12-04T23:46:49.256Z,1012.05
2022-12-04T23:50:05.862Z,1012.08
2022-12-04T23:51:04.960Z,1012.08
2022-12-04T23:52:05.102Z,1012.04
2022-12-04T23:53:04.680Z,1012.04
2022-12-04T23:56:24.097Z,1012.06
2022-12-04T23:57:20.443Z,1012.07
2022-12-04T23:58:23.700Z,1012.07
2022-12-04T23:59:25.501Z,1012.06
